Time;durP1;ratioP1;P1;durP2;ratioP2;P2;SDS_P1;SDS_P2;PMS_P1;PMS_P2;Temp;Humidity;BMP_temperature;BMP_pressure;BME280_temperature;BME280_humidity;BME280_pressure;Samples;Min_cycle;Max_cycle;Signal;HPM_P1;HPM_P2
2022/04/25 00:02:14;;;;;;;17.52;10.48;;;9.00;99.90;;;;;;4981749;28;20559;-72
2022/04/25 00:04:40;;;;;;;16.67;9.95;;;8.90;99.90;;;;;;5014695;28;20448;-67
2022/04/25 00:07:05;;;;;;;17.30;8.85;;;8.90;99.90;;;;;;5012052;28;20052;-69
2022/04/25 00:09:31;;;;;;;23.38;9.32;;;8.90;99.90;;;;;;5015092;28;20046;-68
2022/04/25 00:11:56;;;;;;;18.67;9.30;;;8.90;99.90;;;;;;5016232;28;20053;-71
2022/04/25 00:14:22;;;;;;;20.35;8.20;;;8.80;99.90;;;;;;5015442;28;20067;-72
2022/04/25 00:16:47;;;;;;;18.63;7.63;;;8.90;99.90;;;;;;5015335;28;20135;-69
2022/04/25 00:19:13;;;;;;;20.20;8.50;;;8.90;99.90;;;;;;5014963;28;20096;-69
2022/04/25 00:21:38;;;;;;;18.25;8.00;;;9.00;99.90;;;;;;5014915;28;20056;-70
2022/04/25 00:24:04;;;;;;;19.88;7.22;;;9.00;99.90;;;;;;5015233;28;20053;-67
2022/04/25 00:26:30;;;;;;;23.02;7.47;;;9.00;99.90;;;;;;5015076;28;20046;-69
2022/04/25 00:28:56;;;;;;;15.40;7.10;;;9.10;99.90;;;;;;5014988;28;20041;-68
2022/04/25 00:31:21;;;;;;;14.25;6.82;;;9.10;99.90;;;;;;5015003;28;20522;-69
2022/04/25 00:33:47;;;;;;;18.08;7.57;;;9.10;99.90;;;;;;4988811;28;20050;-68
2022/04/25 00:36:12;;;;;;;14.55;6.03;;;9.10;99.90;;;;;;4995543;28;20053;-67
2022/04/25 00:38:38;;;;;;;17.75;7.20;;;9.10;99.90;;;;;;4995305;28;20038;-69
2022/04/25 00:41:06;;;;;;;15.82;7.07;;;9.10;99.90;;;;;;4995255;28;20074;-69
2022/04/25 00:43:31;;;;;;;11.15;6.40;;;9.20;99.90;;;;;;4978243;28;20064;-69
2022/04/25 00:45:57;;;;;;;19.10;7.93;;;9.10;99.90;;;;;;4995747;28;20442;-67
2022/04/25 00:48:22;;;;;;;10.95;6.97;;;9.20;99.90;;;;;;4996239;28;20488;-71
2022/04/25 00:50:48;;;;;;;13.52;6.50;;;9.20;99.90;;;;;;4994942;28;20097;-67
2022/04/25 00:53:13;;;;;;;13.65;7.20;;;9.20;99.90;;;;;;4977802;28;20051;-72
2022/04/25 00:55:39;;;;;;;17.33;8.05;;;9.20;99.90;;;;;;4995161;28;20141;-68
2022/04/25 00:58:05;;;;;;;11.57;5.95;;;9.20;99.90;;;;;;4995231;28;20042;-69
2022/04/25 01:00:32;;;;;;;15.20;7.05;;;9.30;99.90;;;;;;4999758;28;20101;-68
2022/04/25 01:02:57;;;;;;;13.68;7.30;;;9.30;99.90;;;;;;5014837;28;20065;-68
2022/04/25 01:05:23;;;;;;;15.02;7.28;;;9.30;99.90;;;;;;5018383;28;20041;-71
2022/04/25 01:07:48;;;;;;;17.98;6.70;;;9.30;99.90;;;;;;5000673;28;20045;-66
2022/04/25 01:10:14;;;;;;;13.88;7.18;;;9.30;99.90;;;;;;5018100;28;20046;-67
2022/04/25 01:12:40;;;;;;;16.08;7.45;;;9.30;99.90;;;;;;5018188;28;20342;-67
2022/04/25 01:15:08;;;;;;;14.20;6.70;;;9.30;99.90;;;;;;5017396;28;20125;-68
2022/04/25 01:17:34;;;;;;;18.60;7.43;;;9.30;99.90;;;;;;5000703;28;20054;-69
2022/04/25 01:19:59;;;;;;;15.30;7.40;;;9.40;99.90;;;;;;5000848;28;20518;-68
2022/04/25 01:22:43;;;;;;;16.67;8.02;;;9.30;99.90;;;;;;5017776;28;20108;-70
2022/04/25 01:27:54;;;;;;;12.02;6.63;;;9.40;99.90;;;;;;5017873;28;20375;-66
2022/04/25 01:30:20;;;;;;;15.90;7.18;;;9.40;99.90;;;;;;5017440;28;20495;-67
2022/04/25 01:32:46;;;;;;;12.18;7.28;;;9.40;99.90;;;;;;5016111;28;20046;-68
2022/04/25 01:35:12;;;;;;;14.15;5.88;;;9.40;99.90;;;;;;5017588;28;20038;-68
2022/04/25 01:37:38;;;;;;;13.93;6.68;;;9.40;99.90;;;;;;5013502;28;20038;-68
2022/04/25 01:40:04;;;;;;;17.30;6.93;;;9.40;99.90;;;;;;4980925;28;20054;-67
2022/04/25 01:42:29;;;;;;;13.52;7.30;;;9.40;99.90;;;;;;4997712;28;20138;-68
2022/04/25 01:44:55;;;;;;;16.83;6.72;;;9.30;99.90;;;;;;4998002;28;20129;-68
2022/04/25 01:47:21;;;;;;;15.68;7.63;;;9.30;99.90;;;;;;4997901;28;20109;-70
2022/04/25 01:49:46;;;;;;;16.00;7.22;;;9.30;99.90;;;;;;4998055;28;20081;-69
2022/04/25 01:52:26;;;;;;;14.60;7.57;;;9.30;99.90;;;;;;5014136;28;20539;-69
2022/04/25 01:54:51;;;;;;;15.88;8.30;;;9.30;99.90;;;;;;5017282;28;20054;-68
2022/04/25 01:57:17;;;;;;;13.95;7.60;;;9.30;99.90;;;;;;5017029;28;20042;-68
2022/04/25 01:59:44;;;;;;;13.90;7.93;;;9.30;99.90;;;;;;5000094;28;20108;-68
2022/04/25 02:02:11;;;;;;;14.25;8.43;;;9.30;99.90;;;;;;5017049;28;20400;-67
2022/04/25 02:04:37;;;;;;;15.95;9.00;;;9.30;99.90;;;;;;5017148;28;20041;-69
2022/04/25 02:07:05;;;;;;;18.17;8.77;;;9.30;99.90;;;;;;5017356;28;20502;-69
2022/04/25 02:09:30;;;;;;;15.60;8.65;;;9.20;99.90;;;;;;5014413;28;20484;-68
2022/04/25 02:11:56;;;;;;;15.60;8.73;;;9.20;99.90;;;;;;5016221;28;20056;-71
2022/04/25 02:14:22;;;;;;;14.00;8.55;;;9.20;99.90;;;;;;5000047;28;20064;-68
2022/04/25 02:16:47;;;;;;;13.75;9.05;;;9.20;99.90;;;;;;5016660;28;20129;-67
2022/04/25 02:19:13;;;;;;;14.68;9.73;;;9.20;99.90;;;;;;5016930;28;20399;-68
2022/04/25 02:21:39;;;;;;;18.15;9.60;;;9.10;99.90;;;;;;5016739;28;20456;-69
2022/04/25 02:24:05;;;;;;;18.40;9.60;;;9.00;99.90;;;;;;4999507;28;20042;-69
2022/04/25 02:26:31;;;;;;;15.55;9.35;;;9.00;99.90;;;;;;5016406;28;20132;-70
2022/04/25 02:28:57;;;;;;;17.45;8.93;;;8.90;99.90;;;;;;5016815;28;20080;-70
2022/04/25 02:31:26;;;;;;;13.98;8.60;;;8.90;99.90;;;;;;5016296;28;20057;-69
2022/04/25 02:33:51;;;;;;;13.07;8.75;;;8.90;99.90;;;;;;5016637;28;20092;-70
2022/04/25 02:36:17;;;;;;;15.35;8.73;;;8.90;99.90;;;;;;5016696;28;20392;-67
2022/04/25 02:38:42;;;;;;;14.32;8.93;;;8.80;99.90;;;;;;5016420;28;20380;-68
2022/04/25 02:41:09;;;;;;;12.65;8.88;;;8.70;99.90;;;;;;4999154;28;20452;-70
2022/04/25 02:43:42;;;;;;;13.85;8.77;;;8.70;99.90;;;;;;5016358;28;20060;-70
2022/04/25 02:46:12;;;;;;;17.08;9.93;;;8.70;99.90;;;;;;5016182;28;20046;-70
2022/04/25 02:48:40;;;;;;;17.52;9.25;;;8.60;99.90;;;;;;5016477;28;20088;-67
2022/04/25 02:51:07;;;;;;;15.15;9.85;;;8.60;99.90;;;;;;5016135;28;20153;-66
2022/04/25 02:53:34;;;;;;;17.23;9.05;;;8.50;99.90;;;;;;5016192;28;20061;-68
2022/04/25 02:56:02;;;;;;;18.73;9.73;;;8.50;99.90;;;;;;5016217;28;20049;-69
2022/04/25 02:58:29;;;;;;;14.35;10.57;;;8.50;99.90;;;;;;4998692;28;20058;-70
2022/04/25 03:00:55;;;;;;;18.50;9.48;;;8.40;99.90;;;;;;5015604;28;20050;-67
2022/04/25 03:03:21;;;;;;;15.40;9.93;;;8.30;99.90;;;;;;5016151;28;20081;-69
2022/04/25 03:05:49;;;;;;;16.05;9.13;;;8.30;99.90;;;;;;5015786;28;20057;-67
2022/04/25 03:08:18;;;;;;;13.68;8.98;;;8.30;99.90;;;;;;5015952;28;20054;-67
2022/04/25 03:10:45;;;;;;;15.40;9.45;;;8.30;99.90;;;;;;5015724;28;20046;-69
2022/04/25 03:13:12;;;;;;;14.60;9.90;;;8.20;99.90;;;;;;5015994;28;20065;-67
2022/04/25 03:15:41;;;;;;;15.63;9.23;;;8.20;99.90;;;;;;4998130;28;20317;-67
2022/04/25 03:18:08;;;;;;;15.80;9.52;;;8.20;99.90;;;;;;5012196;28;20030;-67
2022/04/25 03:20:34;;;;;;;14.68;10.13;;;8.30;99.90;;;;;;4996184;28;20522;-68
2022/04/25 03:23:00;;;;;;;17.27;9.68;;;8.30;99.90;;;;;;4995310;28;20046;-68
2022/04/25 03:25:26;;;;;;;13.65;8.90;;;8.30;99.90;;;;;;4995970;28;20364;-67
2022/04/25 03:27:51;;;;;;;14.55;9.73;;;8.30;99.90;;;;;;4996319;28;20057;-70
2022/04/25 03:30:17;;;;;;;13.48;8.93;;;8.40;99.90;;;;;;4996047;28;20563;-69
2022/04/25 03:32:47;;;;;;;13.73;9.35;;;8.40;99.90;;;;;;4995477;28;20065;-67
2022/04/25 03:35:18;;;;;;;15.38;9.48;;;8.40;99.90;;;;;;4995647;28;20100;-68
2022/04/25 03:37:45;;;;;;;19.15;10.05;;;8.50;99.90;;;;;;4995795;28;20103;-67
2022/04/25 03:40:12;;;;;;;16.52;9.13;;;8.50;99.90;;;;;;4996099;28;20064;-69
2022/04/25 03:42:39;;;;;;;21.05;9.32;;;8.60;99.90;;;;;;4978681;28;20046;-67
2022/04/25 03:45:07;;;;;;;15.65;9.05;;;8.60;99.90;;;;;;4993744;28;20060;-68
2022/04/25 03:47:33;;;;;;;13.88;8.15;;;8.60;99.90;;;;;;5015034;28;20123;-69
2022/04/25 03:49:58;;;;;;;17.05;8.95;;;8.60;99.90;;;;;;5015252;28;20448;-69
2022/04/25 03:52:24;;;;;;;12.18;7.93;;;8.70;99.90;;;;;;5015339;28;20124;-66
2022/04/25 03:57:34;;;;;;;19.15;8.77;;;8.70;99.90;;;;;;4997554;28;20052;-68
2022/04/25 03:59:59;;;;;;;14.00;8.20;;;8.70;99.90;;;;;;5015394;28;20041;-67
2022/04/25 04:02:25;;;;;;;15.75;8.60;;;8.70;99.90;;;;;;5014985;28;20041;-70
2022/04/25 04:04:51;;;;;;;19.42;8.38;;;8.80;99.90;;;;;;4982029;28;20085;-70
2022/04/25 04:07:16;;;;;;;15.80;7.95;;;8.70;99.90;;;;;;4995515;28;20057;-69
2022/04/25 04:09:44;;;;;;;12.65;8.27;;;8.80;99.90;;;;;;4995415;28;20369;-68
2022/04/25 04:12:10;;;;;;;17.70;9.57;;;8.80;99.90;;;;;;4995424;28;20046;-68
2022/04/25 04:14:36;;;;;;;12.45;8.20;;;8.80;99.90;;;;;;4995436;28;20048;-68
2022/04/25 04:17:07;;;;;;;17.85;8.02;;;8.80;99.90;;;;;;4995127;28;20046;-71
2022/04/25 04:19:34;;;;;;;14.20;8.68;;;8.80;99.90;;;;;;4995333;28;20435;-70
2022/04/25 04:22:02;;;;;;;16.38;8.25;;;8.80;99.90;;;;;;4995252;28;20077;-67
2022/04/25 04:24:28;;;;;;;14.07;7.90;;;8.90;99.90;;;;;;4995659;28;20372;-67
2022/04/25 04:26:55;;;;;;;18.98;8.95;;;8.90;99.90;;;;;;5003837;28;20070;-68
2022/04/25 04:29:21;;;;;;;19.90;8.50;;;8.90;99.90;;;;;;4997826;28;20046;-67
2022/04/25 04:31:46;;;;;;;12.57;7.57;;;8.90;99.90;;;;;;4997352;28;20053;-68
2022/04/25 04:34:12;;;;;;;14.15;8.15;;;8.80;99.90;;;;;;5016452;28;20053;-70
2022/04/25 04:36:38;;;;;;;17.13;7.80;;;8.90;99.90;;;;;;5018740;28;20104;-70
2022/04/25 04:39:04;;;;;;;15.77;8.57;;;8.90;99.90;;;;;;5018941;28;20041;-68
2022/04/25 04:41:29;;;;;;;13.20;7.80;;;8.90;99.90;;;;;;4993299;28;20149;-68
2022/04/25 04:43:58;;;;;;;15.57;8.77;;;8.90;99.90;;;;;;4999017;28;20077;-69
2022/04/25 04:46:24;;;;;;;14.80;8.43;;;8.90;99.90;;;;;;5000877;28;20052;-71
2022/04/25 04:48:50;;;;;;;15.15;7.70;;;8.90;99.90;;;;;;5014642;28;20391;-68
2022/04/25 04:51:16;;;;;;;11.98;7.55;;;8.90;99.90;;;;;;5018768;28;20141;-67
2022/04/25 04:53:42;;;;;;;14.00;7.90;;;8.80;99.90;;;;;;5001257;28;20125;-68
2022/04/25 04:56:08;;;;;;;13.40;7.28;;;8.90;99.90;;;;;;5000799;28;20112;-69
2022/04/25 04:58:34;;;;;;;13.75;8.85;;;8.90;99.90;;;;;;5018390;28;20069;-66
2022/04/25 05:01:01;;;;;;;15.35;8.13;;;8.90;99.90;;;;;;5005584;28;20460;-68
2022/04/25 05:03:27;;;;;;;13.20;7.47;;;8.90;99.90;;;;;;5008019;28;20448;-68
2022/04/25 05:05:53;;;;;;;14.25;7.95;;;8.90;99.90;;;;;;5018161;28;20042;-68
2022/04/25 05:08:20;;;;;;;13.25;7.25;;;8.90;99.90;;;;;;5000685;28;20387;-70
2022/04/25 05:10:45;;;;;;;11.50;7.85;;;8.90;99.90;;;;;;5018275;28;20061;-67
2022/04/25 05:13:11;;;;;;;12.02;7.40;;;9.00;99.90;;;;;;5018258;28;20046;-68
2022/04/25 05:15:37;;;;;;;16.27;7.72;;;9.00;99.90;;;;;;5012625;28;20046;-67
2022/04/25 05:18:03;;;;;;;15.10;8.52;;;9.00;99.90;;;;;;4981544;28;20060;-69
2022/04/25 05:20:29;;;;;;;13.38;8.68;;;9.00;99.90;;;;;;4998372;28;20468;-69
2022/04/25 05:22:55;;;;;;;10.40;7.63;;;9.00;99.90;;;;;;4998350;28;20046;-68
2022/04/25 05:25:24;;;;;;;14.25;8.07;;;9.00;99.90;;;;;;4998478;28;20046;-68
2022/04/25 05:27:52;;;;;;;14.40;8.02;;;9.00;99.90;;;;;;4998497;28;20050;-69
2022/04/25 05:30:18;;;;;;;20.00;8.98;;;9.00;99.90;;;;;;5001883;28;20057;-67
2022/04/25 05:32:49;;;;;;;14.05;7.85;;;9.00;99.90;;;;;;5017710;28;20077;-70
2022/04/25 05:35:16;;;;;;;15.60;7.70;;;9.00;99.90;;;;;;5017572;28;20111;-70
2022/04/25 05:37:43;;;;;;;13.55;7.68;;;9.00;99.90;;;;;;5017713;28;20042;-67
2022/04/25 05:40:09;;;;;;;12.63;7.97;;;9.10;99.90;;;;;;5017567;28;20341;-69
2022/04/25 05:42:35;;;;;;;13.48;8.23;;;9.10;99.90;;;;;;5017108;28;20045;-69
2022/04/25 05:45:03;;;;;;;12.25;7.93;;;9.10;99.90;;;;;;4999541;28;20449;-70
2022/04/25 05:47:28;;;;;;;13.43;7.68;;;9.10;99.90;;;;;;4998109;28;20050;-70
2022/04/25 05:52:38;;;;;;;14.07;8.70;;;9.10;99.90;;;;;;5017084;28;20062;-68
2022/04/25 05:55:04;;;;;;;13.75;8.65;;;9.20;99.90;;;;;;5017005;28;20037;-69
2022/04/25 05:57:31;;;;;;;16.13;7.82;;;9.20;99.90;;;;;;5017320;28;20487;-68
2022/04/25 05:59:57;;;;;;;13.48;8.45;;;9.20;99.90;;;;;;5017497;28;20396;-68
2022/04/25 06:02:22;;;;;;;14.15;7.75;;;9.30;99.90;;;;;;4995361;28;20103;-69
2022/04/25 06:04:48;;;;;;;11.48;8.00;;;9.30;99.90;;;;;;5016797;28;20054;-69
2022/04/25 06:07:13;;;;;;;13.30;8.20;;;9.40;99.90;;;;;;5017135;28;20078;-69
2022/04/25 06:09:39;;;;;;;11.77;8.30;;;9.30;99.90;;;;;;5017077;28;20141;-70
2022/04/25 06:12:06;;;;;;;12.32;7.80;;;9.40;99.90;;;;;;5017135;28;20062;-68
2022/04/25 06:14:31;;;;;;;13.10;8.15;;;9.40;99.90;;;;;;5013994;28;20077;-68
2022/04/25 06:16:59;;;;;;;12.23;8.30;;;9.50;99.90;;;;;;4999492;28;20046;-68
2022/04/25 06:19:25;;;;;;;11.32;8.07;;;9.50;99.90;;;;;;5001984;28;20049;-70
2022/04/25 06:21:50;;;;;;;12.35;8.23;;;9.60;99.90;;;;;;4998642;28;20073;-69
2022/04/25 06:24:16;;;;;;;14.00;8.13;;;9.60;99.90;;;;;;5007136;28;20456;-72
2022/04/25 06:26:42;;;;;;;11.10;7.68;;;9.60;99.90;;;;;;4999323;28;20479;-71
2022/04/25 06:29:07;;;;;;;12.77;7.75;;;9.60;99.90;;;;;;5007912;28;20045;-70
2022/04/25 06:31:33;;;;;;;13.00;8.68;;;9.70;99.90;;;;;;4998945;28;20053;-71
2022/04/25 06:33:58;;;;;;;14.20;7.95;;;9.70;99.90;;;;;;5016610;28;20511;-70
2022/04/25 06:36:25;;;;;;;13.00;7.22;;;9.70;99.90;;;;;;5021390;28;20041;-68
2022/04/25 06:38:50;;;;;;;11.63;7.47;;;9.60;99.90;;;;;;5009935;28;20049;-70
2022/04/25 06:41:16;;;;;;;12.15;7.65;;;9.60;99.90;;;;;;5016247;28;20046;-73
2022/04/25 06:43:42;;;;;;;15.90;7.40;;;9.70;99.90;;;;;;5016541;28;20100;-72
2022/04/25 06:46:07;;;;;;;13.90;7.90;;;9.70;99.90;;;;;;5016523;28;20077;-72
2022/04/25 06:48:33;;;;;;;12.38;7.88;;;9.70;99.90;;;;;;5015942;28;20053;-71
2022/04/25 06:51:00;;;;;;;11.55;7.38;;;9.70;99.90;;;;;;4998775;28;20057;-72
2022/04/25 06:53:26;;;;;;;14.23;8.02;;;9.80;99.90;;;;;;5015677;28;20038;-74
2022/04/25 06:55:52;;;;;;;13.57;7.60;;;9.80;99.90;;;;;;4998949;28;20368;-71
2022/04/25 06:58:18;;;;;;;13.82;7.78;;;9.90;99.90;;;;;;5015169;28;20115;-73
2022/04/25 07:00:45;;;;;;;13.05;7.10;;;9.90;99.90;;;;;;5015997;28;20046;-70
2022/04/25 07:03:10;;;;;;;13.60;8.45;;;9.90;99.90;;;;;;4992398;28;20069;-72
2022/04/25 07:05:36;;;;;;;13.45;8.15;;;9.90;99.90;;;;;;5014570;28;20049;-74
2022/04/25 07:08:02;;;;;;;14.65;7.93;;;9.90;99.90;;;;;;4997602;28;20042;-72
2022/04/25 07:10:27;;;;;;;11.63;6.75;;;10.00;99.90;;;;;;4996190;28;20050;-71
2022/04/25 07:12:55;;;;;;;11.57;7.38;;;10.00;99.90;;;;;;4996384;28;20050;-71
2022/04/25 07:15:21;;;;;;;13.73;7.70;;;10.10;99.90;;;;;;4996255;28;20042;-69
2022/04/25 07:17:50;;;;;;;13.80;6.82;;;10.10;99.90;;;;;;4997722;28;20121;-71
2022/04/25 07:20:16;;;;;;;12.63;6.88;;;10.20;99.90;;;;;;4996495;28;20057;-71
2022/04/25 07:30:54;;;;;;;13.60;6.95;;;10.30;99.90;;;;;;5006137;28;20049;-71
2022/04/25 07:33:20;;;;;;;11.38;6.72;;;10.30;99.90;;;;;;5014084;28;20072;-70
2022/04/25 07:35:46;;;;;;;14.65;7.05;;;10.40;99.90;;;;;;5015173;28;20073;-72
2022/04/25 07:38:12;;;;;;;13.32;7.35;;;10.50;99.90;;;;;;5015644;28;20053;-74
2022/04/25 07:40:41;;;;;;;15.40;6.93;;;10.40;99.90;;;;;;5015297;28;20057;-72
2022/04/25 07:43:06;;;;;;;15.10;7.95;;;10.50;99.90;;;;;;4998667;28;20156;-72
2022/04/25 07:45:32;;;;;;;14.07;7.25;;;10.60;99.90;;;;;;4999796;28;20082;-73
2022/04/25 07:47:58;;;;;;;13.75;7.15;;;10.60;99.90;;;;;;4978527;28;20053;-72
2022/04/25 07:50:25;;;;;;;15.25;7.03;;;10.60;99.90;;;;;;4978373;28;20444;-72
2022/04/25 07:52:51;;;;;;;9.38;7.03;;;10.70;99.90;;;;;;4995432;28;20148;-70
2022/04/25 07:55:17;;;;;;;11.30;6.32;;;10.70;99.90;;;;;;4980449;28;20050;-75
2022/04/25 07:57:42;;;;;;;13.15;6.72;;;10.80;99.90;;;;;;5013105;28;20057;-71
2022/04/25 08:00:08;;;;;;;11.65;6.25;;;10.80;99.90;;;;;;4991144;28;20093;-72
2022/04/25 08:02:34;;;;;;;14.75;7.20;;;10.80;99.90;;;;;;4997806;28;20058;-71
2022/04/25 08:05:00;;;;;;;11.93;7.03;;;10.90;99.90;;;;;;4995506;28;20038;-70
2022/04/25 08:07:26;;;;;;;12.68;6.80;;;10.90;99.90;;;;;;4994531;28;20366;-72
2022/04/25 08:09:52;;;;;;;11.70;6.72;;;11.00;99.90;;;;;;4995160;28;20042;-70
2022/04/25 08:18:01;;;;;;;12.53;6.93;;;11.10;99.90;;;;;;5006232;28;20053;-73
2022/04/25 08:20:28;;;;;;;12.93;7.38;;;11.30;99.90;;;;;;5014882;28;20068;-73
2022/04/25 08:22:57;;;;;;;13.55;6.80;;;11.40;99.90;;;;;;5014857;28;20033;-72
2022/04/25 08:25:24;;;;;;;12.85;6.22;;;11.50;99.90;;;;;;4980196;28;20058;-71
2022/04/25 08:27:50;;;;;;;13.07;6.30;;;11.50;99.90;;;;;;5014828;28;20046;-70
2022/04/25 08:30:17;;;;;;;10.13;5.22;;;11.40;99.90;;;;;;5007731;28;20048;-72
2022/04/25 08:32:43;;;;;;;9.82;5.82;;;11.50;99.90;;;;;;4995066;28;20038;-71
2022/04/25 08:35:12;;;;;;;11.05;5.55;;;11.60;99.90;;;;;;4995009;28;20431;-70
2022/04/25 08:37:37;;;;;;;10.65;4.97;;;11.70;99.90;;;;;;5013481;28;20103;-72
2022/04/25 08:40:04;;;;;;;11.48;5.88;;;11.90;99.90;;;;;;4997285;28;20041;-71
2022/04/25 08:42:31;;;;;;;13.15;5.95;;;12.00;99.90;;;;;;4997360;28;20050;-71
2022/04/25 08:44:58;;;;;;;10.85;5.53;;;11.90;99.90;;;;;;5014817;28;20120;-71
2022/04/25 08:47:28;;;;;;;11.60;6.05;;;11.90;99.90;;;;;;5014770;28;20125;-71
2022/04/25 08:49:57;;;;;;;17.45;5.80;;;11.90;99.90;;;;;;5014124;28;20056;-71
2022/04/25 08:52:24;;;;;;;7.60;5.15;;;11.80;99.90;;;;;;5013699;28;20057;-70
2022/04/25 08:54:51;;;;;;;12.30;5.82;;;11.80;99.90;;;;;;5014942;28;20054;-71
2022/04/25 08:57:18;;;;;;;12.88;5.93;;;11.80;99.90;;;;;;5014687;28;20042;-72
2022/04/25 08:59:46;;;;;;;8.27;5.28;;;11.70;99.90;;;;;;5014296;28;20050;-73
2022/04/25 09:02:12;;;;;;;10.73;5.25;;;11.70;99.90;;;;;;5014414;28;20092;-72
2022/04/25 09:04:38;;;;;;;10.50;5.30;;;11.70;99.90;;;;;;4995618;28;20053;-72
2022/04/25 09:07:04;;;;;;;13.80;5.15;;;11.80;99.90;;;;;;4995285;28;20046;-71
2022/04/25 09:09:30;;;;;;;11.90;5.25;;;12.00;99.90;;;;;;5002379;28;20111;-74
2022/04/25 09:12:11;;;;;;;9.05;5.28;;;12.00;99.90;;;;;;5014793;28;20046;-74
2022/04/25 09:14:40;;;;;;;11.52;4.93;;;12.10;99.90;;;;;;5014757;28;20068;-72
2022/04/25 09:17:06;;;;;;;10.52;5.10;;;12.20;99.90;;;;;;5014493;28;20057;-74
2022/04/25 09:19:33;;;;;;;11.20;5.20;;;12.30;99.90;;;;;;5012672;28;20475;-74
2022/04/25 09:21:59;;;;;;;8.98;4.57;;;12.50;99.90;;;;;;5016888;28;20399;-74
2022/04/25 09:24:29;;;;;;;8.32;5.13;;;12.50;99.90;;;;;;5018114;28;20103;-77
2022/04/25 09:27:07;;;;;;;9.15;5.70;;;12.50;99.90;;;;;;5000682;28;20050;-72
2022/04/25 09:29:34;;;;;;;9.52;4.97;;;12.50;99.90;;;;;;5017520;28;20061;-72
2022/04/25 09:32:00;;;;;;;10.05;4.75;;;12.60;99.90;;;;;;5017588;28;20491;-73
2022/04/25 09:37:14;;;;;;;9.00;5.40;;;12.80;99.90;;;;;;5017993;28;20050;-76
2022/04/25 09:39:40;;;;;;;12.38;4.78;;;12.80;99.90;;;;;;5017787;28;20095;-71
2022/04/25 09:42:06;;;;;;;8.27;4.90;;;12.70;99.90;;;;;;5035940;28;20415;-72
2022/04/25 09:44:56;;;;;;;8.82;4.80;;;12.80;99.90;;;;;;5034851;28;20383;-74
2022/04/25 09:47:47;;;;;;;11.25;5.00;;;12.90;99.90;;;;;;5035017;28;20045;-73
2022/04/25 09:50:14;;;;;;;9.00;4.70;;;12.80;99.90;;;;;;5013250;28;20050;-72
2022/04/25 09:52:55;;;;;;;8.15;4.55;;;12.80;99.90;;;;;;5017200;28;20049;-72
2022/04/25 09:55:22;;;;;;;8.82;4.43;;;12.90;99.90;;;;;;5017407;28;20074;-70
2022/04/25 09:57:50;;;;;;;9.88;4.80;;;13.10;99.90;;;;;;5000622;28;20075;-70
2022/04/25 10:00:38;;;;;;;7.50;4.45;;;13.40;99.90;;;;;;5000264;28;20371;-68
2022/04/25 10:03:08;;;;;;;9.00;4.45;;;13.50;99.90;;;;;;5000240;28;20072;-73
2022/04/25 10:05:42;;;;;;;9.18;4.10;;;13.30;99.90;;;;;;5017186;28;20379;-73
2022/04/25 10:08:11;;;;;;;8.82;4.45;;;13.30;99.90;;;;;;5017837;28;20090;-71
2022/04/25 10:11:01;;;;;;;9.07;4.43;;;13.20;99.90;;;;;;5017228;28;20104;-70
2022/04/25 10:13:27;;;;;;;7.20;4.18;;;13.20;99.90;;;;;;5016624;28;20049;-71
2022/04/25 10:15:56;;;;;;;11.45;4.63;;;13.20;99.90;;;;;;5016719;28;20471;-72
2022/04/25 10:18:22;;;;;;;8.05;4.40;;;13.20;99.90;;;;;;5017206;28;20137;-71
2022/04/25 10:20:48;;;;;;;7.00;4.00;;;13.00;99.90;;;;;;5016960;28;20042;-72
2022/04/25 10:23:16;;;;;;;9.45;4.13;;;12.80;99.90;;;;;;5006354;28;20116;-71
2022/04/25 10:25:50;;;;;;;8.55;4.75;;;12.70;99.90;;;;;;4997398;28;20441;-73
2022/04/25 10:28:40;;;;;;;6.93;4.63;;;12.60;99.90;;;;;;4979789;28;20050;-70
2022/04/25 10:31:13;;;;;;;7.47;4.53;;;12.60;99.90;;;;;;4996750;28;20038;-67
2022/04/25 10:33:53;;;;;;;10.88;4.70;;;12.50;99.90;;;;;;5016310;28;20049;-71
2022/04/25 10:36:36;;;;;;;12.65;4.60;;;12.60;99.90;;;;;;5014899;28;20041;-71
2022/04/25 10:39:23;;;;;;;7.75;4.35;;;12.60;99.90;;;;;;4997595;28;20050;-69
2022/04/25 10:44:42;;;;;;;7.60;5.13;;;12.70;99.90;;;;;;4997006;28;20054;-73
2022/04/25 10:47:16;;;;;;;11.55;4.15;;;12.70;99.90;;;;;;4996660;28;20359;-72
2022/04/25 10:49:46;;;;;;;9.98;4.13;;;12.80;99.90;;;;;;4996850;28;20050;-70
2022/04/25 10:52:34;;;;;;;6.50;4.20;;;12.90;99.90;;;;;;4996160;28;20050;-73
2022/04/25 10:55:13;;;;;;;6.13;4.00;;;13.10;99.90;;;;;;5015928;28;20130;-71
2022/04/25 10:58:18;;;;;;;10.65;4.10;;;13.20;99.90;;;;;;5015966;28;20041;-71
2022/04/25 11:00:46;;;;;;;5.18;3.90;;;13.30;99.90;;;;;;5015442;28;20068;-72
2022/04/25 11:03:17;;;;;;;9.20;4.57;;;13.30;99.90;;;;;;4998782;28;20100;-72
2022/04/25 11:05:50;;;;;;;12.00;4.47;;;13.30;99.90;;;;;;5016049;28;20050;-74
2022/04/25 11:08:17;;;;;;;8.07;4.22;;;13.30;99.90;;;;;;5014243;28;20107;-74
2022/04/25 11:10:56;;;;;;;11.90;4.68;;;13.40;99.90;;;;;;4998681;28;20091;-74
2022/04/25 11:13:23;;;;;;;9.02;4.50;;;13.40;99.90;;;;;;5016017;28;20132;-73
2022/04/25 11:15:57;;;;;;;10.23;4.20;;;13.60;99.90;;;;;;5015220;28;20052;-71
2022/04/25 11:18:34;;;;;;;13.43;4.45;;;13.60;99.90;;;;;;4998637;28;20096;-72
2022/04/25 11:21:05;;;;;;;11.15;5.55;;;13.70;99.90;;;;;;5015824;28;20448;-72
2022/04/25 11:23:32;;;;;;;10.82;4.72;;;13.60;99.90;;;;;;5015992;28;20068;-72
2022/04/25 11:25:59;;;;;;;11.60;4.22;;;13.60;99.90;;;;;;5015696;28;20046;-72
2022/04/25 11:28:27;;;;;;;12.27;4.75;;;13.70;99.90;;;;;;4997888;28;20065;-72
2022/04/25 11:31:13;;;;;;;12.52;4.90;;;13.70;99.90;;;;;;4996020;28;20054;-72
2022/04/25 11:33:43;;;;;;;13.68;4.70;;;13.80;99.90;;;;;;4982738;28;20354;-74
2022/04/25 11:36:11;;;;;;;8.95;5.10;;;13.80;99.90;;;;;;4995951;28;20133;-73
2022/04/25 11:41:29;;;;;;;13.23;4.97;;;13.90;99.90;;;;;;4995482;28;20046;-74
2022/04/25 11:43:55;;;;;;;11.02;5.15;;;13.90;99.90;;;;;;4997691;28;20479;-73
2022/04/25 11:46:21;;;;;;;11.75;5.10;;;13.80;99.90;;;;;;5000890;28;20050;-72
2022/04/25 11:48:48;;;;;;;9.32;4.20;;;14.00;99.90;;;;;;4995882;28;20042;-75
2022/04/25 11:51:25;;;;;;;7.35;4.32;;;13.90;99.90;;;;;;4995559;28;20389;-74
2022/04/25 11:53:53;;;;;;;11.10;4.43;;;14.10;99.90;;;;;;4995239;28;20058;-73
2022/04/25 11:56:21;;;;;;;9.82;5.18;;;14.20;99.90;;;;;;4995646;28;20369;-71
2022/04/25 11:58:48;;;;;;;9.52;4.65;;;14.20;99.90;;;;;;5003090;28;20060;-73
2022/04/25 12:01:14;;;;;;;10.15;4.43;;;14.10;99.90;;;;;;5015320;28;20091;-73
2022/04/25 12:03:39;;;;;;;8.30;4.50;;;14.00;99.90;;;;;;5015255;28;20045;-72
2022/04/25 12:06:12;;;;;;;9.30;4.32;;;14.10;99.90;;;;;;5015023;28;20176;-73
2022/04/25 12:17:03;;;;;;;7.55;4.38;;;14.70;99.90;;;;;;4994930;28;20050;-73
2022/04/25 12:19:28;;;;;;;11.03;4.13;;;14.80;99.90;;;;;;4978541;28;20065;-74
2022/04/25 12:22:03;;;;;;;12.68;4.63;;;14.70;99.90;;;;;;5011361;28;20054;-74
2022/04/25 12:24:29;;;;;;;;;;;14.80;99.90;;;;;;5014960;28;20050;-74
2022/04/25 12:26:54;;;;;;;7.95;3.83;;;14.60;99.90;;;;;;5006264;28;19972;-74
2022/04/25 12:29:20;;;;;;;8.00;4.00;;;14.80;99.90;;;;;;5018051;28;20048;-74
2022/04/25 12:31:47;;;;;;;9.60;4.05;;;14.90;99.90;;;;;;4997074;28;20100;-73
2022/04/25 12:34:19;;;;;;;8.98;3.65;;;15.20;99.90;;;;;;4997342;28;20121;-77
2022/04/25 12:36:57;;;;;;;8.93;3.83;;;15.40;99.90;;;;;;5014872;28;20045;-73
2022/04/25 12:39:24;;;;;;;7.15;3.83;;;15.50;99.90;;;;;;5014843;28;20038;-75
2022/04/25 12:41:58;;;;;;;8.52;4.40;;;15.40;99.90;;;;;;5004363;28;20387;-74
2022/04/25 12:44:25;;;;;;;8.57;4.30;;;15.40;99.90;;;;;;4983234;28;20042;-73
2022/04/25 12:46:59;;;;;;;11.10;3.88;;;15.50;99.90;;;;;;4977605;28;20050;-73
2022/04/25 12:49:37;;;;;;;7.15;4.40;;;15.70;99.90;;;;;;5012693;28;20054;-74
2022/04/25 12:52:07;;;;;;;8.20;4.40;;;16.20;99.90;;;;;;5014283;28;20061;-74
2022/04/25 12:54:37;;;;;;;9.45;3.63;;;16.90;99.90;;;;;;5014480;28;20369;-78
2022/04/25 12:57:12;;;;;;;8.90;3.97;;;17.20;99.90;;;;;;4984609;28;20053;-75
2022/04/25 12:59:38;;;;;;;8.73;3.70;;;17.80;99.90;;;;;;5018519;28;20046;-75
2022/04/25 13:02:10;;;;;;;9.10;4.35;;;17.50;99.90;;;;;;4999490;28;20050;-73
2022/04/25 13:05:04;;;;;;;7.53;4.65;;;17.20;99.90;;;;;;5015871;28;20045;-75
2022/04/25 13:07:39;;;;;;;7.55;3.80;;;17.30;99.90;;;;;;5018162;28;20048;-74
2022/04/25 13:10:07;;;;;;;6.32;3.42;;;18.00;99.90;;;;;;5018236;28;20372;-75
2022/04/25 13:12:35;;;;;;;6.30;3.35;;;18.40;99.90;;;;;;5000840;28;20046;-74
2022/04/25 13:15:05;;;;;;;8.15;3.70;;;18.80;99.90;;;;;;5018200;28;20041;-75
2022/04/25 13:17:30;;;;;;;6.47;3.72;;;18.40;99.90;;;;;;5017584;28;20050;-74
2022/04/25 13:19:56;;;;;;;4.85;2.95;;;18.10;99.90;;;;;;5017861;28;20144;-75
2022/04/25 13:22:22;;;;;;;5.90;3.30;;;17.80;99.90;;;;;;5017817;28;20423;-73
2022/04/25 13:24:49;;;;;;;9.15;3.53;;;17.60;99.90;;;;;;5018071;28;20054;-74
2022/04/25 13:27:15;;;;;;;6.78;3.25;;;17.60;99.90;;;;;;5003204;28;20762;-74
2022/04/25 13:29:41;;;;;;;6.97;3.22;;;17.50;99.90;;;;;;5037701;28;20049;-76